sensor_id;sensor_type;location;lat;lon;timestamp;pressure;altitude;pressure_sealevel;temperature;humidity
10881;BME280;5493;48.884;8.338;2023-03-03T00:02:24;100529.34;;;4.89;100.00
10881;BME280;5493;48.884;8.338;2023-03-03T00:04:51;100527.28;;;4.77;100.00
10881;BME280;5493;48.884;8.338;2023-03-03T00:07:17;100529.09;;;4.76;100.00
10881;BME280;5493;48.884;8.338;2023-03-03T00:09:48;100520.22;;;4.84;100.00
10881;BME280;5493;48.884;8.338;2023-03-03T00:12:22;100517.22;;;4.79;100.00
10881;BME280;5493;48.884;8.338;2023-03-03T00:14:49;100526.72;;;4.81;100.00
10881;BME280;5493;48.884;8.338;2023-03-03T00:17:20;100523.75;;;4.76;100.00
10881;BME280;5493;48.884;8.338;2023-03-03T00:19:47;100527.38;;;4.83;100.00
10881;BME280;5493;48.884;8.338;2023-03-03T00:22:24;100520.69;;;4.87;100.00
10881;BME280;5493;48.884;8.338;2023-03-03T00:24:52;100527.38;;;4.83;100.00
10881;BME280;5493;48.884;8.338;2023-03-03T00:27:28;100530.56;;;4.79;100.00
10881;BME280;5493;48.884;8.338;2023-03-03T00:29:56;100522.31;;;4.88;100.00
10881;BME280;5493;48.884;8.338;2023-03-03T00:32:25;100521.22;;;4.83;100.00
10881;BME280;5493;48.884;8.338;2023-03-03T00:34:53;100516.50;;;4.85;100.00
10881;BME280;5493;48.884;8.338;2023-03-03T00:37:26;100519.03;;;4.86;100.00
10881;BME280;5493;48.884;8.338;2023-03-03T00:39:58;100518.66;;;4.89;100.00
10881;BME280;5493;48.884;8.338;2023-03-03T00:42:26;100525.44;;;4.77;100.00
10881;BME280;5493;48.884;8.338;2023-03-03T00:44:55;100524.41;;;4.78;100.00
10881;BME280;5493;48.884;8.338;2023-03-03T00:47:28;100533.09;;;4.80;100.00
10881;BME280;5493;48.884;8.338;2023-03-03T00:50:13;100524.88;;;4.82;100.00
10881;BME280;5493;48.884;8.338;2023-03-03T00:52:45;100532.41;;;4.78;100.00
10881;BME280;5493;48.884;8.338;2023-03-03T00:55:18;100527.06;;;4.78;100.00
10881;BME280;5493;48.884;8.338;2023-03-03T00:57:45;100526.25;;;4.78;100.00
10881;BME280;5493;48.884;8.338;2023-03-03T01:00:13;100526.59;;;4.75;100.00
10881;BME280;5493;48.884;8.338;2023-03-03T01:02:40;100526.44;;;4.76;100.00
10881;BME280;5493;48.884;8.338;2023-03-03T01:05:09;100518.69;;;4.81;100.00
10881;BME280;5493;48.884;8.338;2023-03-03T01:07:38;100523.84;;;4.91;100.00
10881;BME280;5493;48.884;8.338;2023-03-03T01:10:06;100524.38;;;5.09;100.00
10881;BME280;5493;48.884;8.338;2023-03-03T01:12:33;100530.19;;;5.13;100.00
10881;BME280;5493;48.884;8.338;2023-03-03T01:15:02;100516.09;;;5.19;100.00
10881;BME280;5493;48.884;8.338;2023-03-03T01:17:28;100510.69;;;5.27;100.00
10881;BME280;5493;48.884;8.338;2023-03-03T01:19:56;100505.25;;;5.20;100.00
10881;BME280;5493;48.884;8.338;2023-03-03T01:22:22;100510.75;;;5.19;100.00
10881;BME280;5493;48.884;8.338;2023-03-03T01:24:49;100513.81;;;5.16;100.00
10881;BME280;5493;48.884;8.338;2023-03-03T01:27:15;100509.03;;;5.03;100.00
10881;BME280;5493;48.884;8.338;2023-03-03T01:29:42;100510.66;;;4.89;100.00
10881;BME280;5493;48.884;8.338;2023-03-03T01:32:10;100508.84;;;4.82;100.00
10881;BME280;5493;48.884;8.338;2023-03-03T01:34:36;100515.56;;;4.78;100.00
10881;BME280;5493;48.884;8.338;2023-03-03T01:37:03;100511.03;;;4.78;100.00
10881;BME280;5493;48.884;8.338;2023-03-03T01:39:29;100512.75;;;4.71;100.00
10881;BME280;5493;48.884;8.338;2023-03-03T01:41:56;100515.75;;;4.76;100.00
10881;BME280;5493;48.884;8.338;2023-03-03T01:44:22;100522.69;;;4.63;100.00
10881;BME280;5493;48.884;8.338;2023-03-03T01:46:53;100516.31;;;4.64;100.00
10881;BME280;5493;48.884;8.338;2023-03-03T01:49:25;100516.03;;;4.59;100.00
10881;BME280;5493;48.884;8.338;2023-03-03T01:51:56;100508.41;;;4.70;100.00
10881;BME280;5493;48.884;8.338;2023-03-03T01:54:26;100507.81;;;4.60;100.00
10881;BME280;5493;48.884;8.338;2023-03-03T01:56:58;100510.00;;;4.57;100.00
10881;BME280;5493;48.884;8.338;2023-03-03T01:59:28;100506.97;;;4.60;100.00
10881;BME280;5493;48.884;8.338;2023-03-03T02:01:57;100500.03;;;4.51;100.00
10881;BME280;5493;48.884;8.338;2023-03-03T02:04:25;100505.47;;;4.65;100.00
10881;BME280;5493;48.884;8.338;2023-03-03T02:06:56;100492.81;;;4.59;100.00
10881;BME280;5493;48.884;8.338;2023-03-03T02:09:29;100487.13;;;4.62;100.00
10881;BME280;5493;48.884;8.338;2023-03-03T02:12:03;100493.63;;;4.60;100.00
10881;BME280;5493;48.884;8.338;2023-03-03T02:14:30;100481.47;;;4.57;100.00
10881;BME280;5493;48.884;8.338;2023-03-03T02:16:57;100487.00;;;4.56;100.00
10881;BME280;5493;48.884;8.338;2023-03-03T02:19:32;100493.25;;;4.40;100.00
10881;BME280;5493;48.884;8.338;2023-03-03T02:22:01;100486.59;;;4.36;100.00
10881;BME280;5493;48.884;8.338;2023-03-03T02:24:32;100493.88;;;4.19;100.00
10881;BME280;5493;48.884;8.338;2023-03-03T02:27:01;100500.16;;;4.26;100.00
10881;BME280;5493;48.884;8.338;2023-03-03T02:29:28;100497.34;;;4.20;100.00
10881;BME280;5493;48.884;8.338;2023-03-03T02:31:54;100493.41;;;4.00;100.00
10881;BME280;5493;48.884;8.338;2023-03-03T02:34:21;100501.50;;;3.83;100.00
10881;BME280;5493;48.884;8.338;2023-03-03T02:36:47;100500.03;;;3.65;100.00
10881;BME280;5493;48.884;8.338;2023-03-03T02:39:17;100510.03;;;3.46;100.00
10881;BME280;5493;48.884;8.338;2023-03-03T02:41:48;100507.53;;;3.37;100.00
10881;BME280;5493;48.884;8.338;2023-03-03T02:44:19;100507.53;;;3.45;100.00
10881;BME280;5493;48.884;8.338;2023-03-03T02:46:48;100510.56;;;3.10;100.00
10881;BME280;5493;48.884;8.338;2023-03-03T02:49:17;100511.91;;;3.22;100.00
10881;BME280;5493;48.884;8.338;2023-03-03T02:51:44;100506.72;;;3.12;100.00
10881;BME280;5493;48.884;8.338;2023-03-03T02:54:12;100514.22;;;2.92;100.00
10881;BME280;5493;48.884;8.338;2023-03-03T02:56:38;100518.03;;;3.06;100.00
10881;BME280;5493;48.884;8.338;2023-03-03T02:59:05;100517.53;;;2.94;100.00
10881;BME280;5493;48.884;8.338;2023-03-03T03:01:33;100524.84;;;2.92;100.00
10881;BME280;5493;48.884;8.338;2023-03-03T03:04:03;100527.47;;;2.76;100.00
10881;BME280;5493;48.884;8.338;2023-03-03T03:06:31;100532.81;;;2.76;100.00
10881;BME280;5493;48.884;8.338;2023-03-03T03:08:58;100527.31;;;2.70;100.00
10881;BME280;5493;48.884;8.338;2023-03-03T03:11:24;100523.97;;;2.68;100.00
10881;BME280;5493;48.884;8.338;2023-03-03T03:13:51;100527.66;;;2.75;100.00
10881;BME280;5493;48.884;8.338;2023-03-03T03:16:18;100525.81;;;2.67;100.00
10881;BME280;5493;48.884;8.338;2023-03-03T03:18:46;100528.97;;;2.79;100.00
10881;BME280;5493;48.884;8.338;2023-03-03T03:21:15;100524.00;;;2.84;100.00
10881;BME280;5493;48.884;8.338;2023-03-03T03:23:42;100521.38;;;3.00;100.00
10881;BME280;5493;48.884;8.338;2023-03-03T03:26:09;100520.34;;;3.01;100.00
10881;BME280;5493;48.884;8.338;2023-03-03T03:28:35;100525.53;;;3.03;100.00
10881;BME280;5493;48.884;8.338;2023-03-03T03:31:03;100523.19;;;3.00;100.00
10881;BME280;5493;48.884;8.338;2023-03-03T03:33:30;100528.88;;;2.96;100.00
10881;BME280;5493;48.884;8.338;2023-03-03T03:35:58;100531.84;;;2.85;100.00
10881;BME280;5493;48.884;8.338;2023-03-03T03:38:25;100532.66;;;2.86;100.00
10881;BME280;5493;48.884;8.338;2023-03-03T03:40:54;100546.28;;;2.75;100.00
10881;BME280;5493;48.884;8.338;2023-03-03T03:43:21;100538.91;;;2.61;100.00
10881;BME280;5493;48.884;8.338;2023-03-03T03:45:47;100545.72;;;2.55;100.00
10881;BME280;5493;48.884;8.338;2023-03-03T03:48:15;100545.00;;;2.37;100.00
10881;BME280;5493;48.884;8.338;2023-03-03T03:50:43;100546.38;;;2.49;100.00
10881;BME280;5493;48.884;8.338;2023-03-03T03:53:11;100542.88;;;2.48;100.00
10881;BME280;5493;48.884;8.338;2023-03-03T03:55:38;100545.47;;;2.32;100.00
10881;BME280;5493;48.884;8.338;2023-03-03T03:58:04;100541.31;;;2.30;100.00
10881;BME280;5493;48.884;8.338;2023-03-03T04:00:31;100535.09;;;2.21;100.00
10881;BME280;5493;48.884;8.338;2023-03-03T04:02:57;100533.97;;;2.24;100.00
10881;BME280;5493;48.884;8.338;2023-03-03T04:05:24;100532.56;;;2.54;100.00
10881;BME280;5493;48.884;8.338;2023-03-03T04:07:51;100527.75;;;2.57;100.00
10881;BME280;5493;48.884;8.338;2023-03-03T04:10:18;100532.09;;;2.58;100.00
10881;BME280;5493;48.884;8.338;2023-03-03T04:12:45;100536.41;;;2.51;100.00
10881;BME280;5493;48.884;8.338;2023-03-03T04:15:13;100543.03;;;2.47;100.00
10881;BME280;5493;48.884;8.338;2023-03-03T04:17:39;100541.16;;;2.39;100.00
10881;BME280;5493;48.884;8.338;2023-03-03T04:20:07;100542.63;;;2.26;100.00
10881;BME280;5493;48.884;8.338;2023-03-03T04:22:34;100539.44;;;2.22;100.00
10881;BME280;5493;48.884;8.338;2023-03-03T04:25:01;100545.25;;;2.18;100.00
10881;BME280;5493;48.884;8.338;2023-03-03T04:27:30;100541.13;;;2.23;100.00
10881;BME280;5493;48.884;8.338;2023-03-03T04:29:57;100540.97;;;2.33;100.00
10881;BME280;5493;48.884;8.338;2023-03-03T04:32:24;100542.53;;;2.43;100.00
10881;BME280;5493;48.884;8.338;2023-03-03T04:34:51;100545.53;;;2.48;100.00
10881;BME280;5493;48.884;8.338;2023-03-03T04:37:17;100543.97;;;2.80;100.00
10881;BME280;5493;48.884;8.338;2023-03-03T04:39:44;100550.44;;;2.69;100.00
10881;BME280;5493;48.884;8.338;2023-03-03T04:42:11;100552.44;;;2.67;100.00
10881;BME280;5493;48.884;8.338;2023-03-03T04:44:39;100556.22;;;2.65;100.00
10881;BME280;5493;48.884;8.338;2023-03-03T04:47:05;100559.69;;;2.57;100.00
10881;BME280;5493;48.884;8.338;2023-03-03T04:49:33;100552.88;;;2.55;100.00
10881;BME280;5493;48.884;8.338;2023-03-03T04:51:59;100551.78;;;2.81;100.00
10881;BME280;5493;48.884;8.338;2023-03-03T04:54:26;100555.44;;;2.80;100.00
10881;BME280;5493;48.884;8.338;2023-03-03T04:56:52;100556.47;;;2.95;100.00
10881;BME280;5493;48.884;8.338;2023-03-03T04:59:19;100555.50;;;2.96;100.00
10881;BME280;5493;48.884;8.338;2023-03-03T05:01:48;100554.81;;;2.94;100.00
10881;BME280;5493;48.884;8.338;2023-03-03T05:04:15;100558.81;;;2.98;100.00
10881;BME280;5493;48.884;8.338;2023-03-03T05:06:41;100555.00;;;2.93;100.00
10881;BME280;5493;48.884;8.338;2023-03-03T05:09:08;100558.16;;;3.05;100.00
10881;BME280;5493;48.884;8.338;2023-03-03T05:11:35;100553.53;;;3.39;100.00
10881;BME280;5493;48.884;8.338;2023-03-03T05:14:01;100549.69;;;3.58;100.00
10881;BME280;5493;48.884;8.338;2023-03-03T05:16:28;100551.81;;;3.70;100.00
10881;BME280;5493;48.884;8.338;2023-03-03T05:18:56;100549.00;;;3.72;100.00
10881;BME280;5493;48.884;8.338;2023-03-03T05:21:22;100547.63;;;3.84;100.00
10881;BME280;5493;48.884;8.338;2023-03-03T05:23:49;100555.28;;;3.95;100.00
10881;BME280;5493;48.884;8.338;2023-03-03T05:26:16;100553.47;;;3.87;100.00
10881;BME280;5493;48.884;8.338;2023-03-03T05:28:43;100552.66;;;3.79;100.00
10881;BME280;5493;48.884;8.338;2023-03-03T05:31:09;100555.31;;;3.55;100.00
10881;BME280;5493;48.884;8.338;2023-03-03T05:33:36;100552.00;;;3.20;100.00
10881;BME280;5493;48.884;8.338;2023-03-03T05:36:04;100557.84;;;3.48;100.00
10881;BME280;5493;48.884;8.338;2023-03-03T05:38:31;100558.03;;;3.46;100.00
10881;BME280;5493;48.884;8.338;2023-03-03T05:40:57;100555.16;;;3.48;100.00
10881;BME280;5493;48.884;8.338;2023-03-03T05:43:24;100560.16;;;3.51;100.00
10881;BME280;5493;48.884;8.338;2023-03-03T05:45:54;100563.84;;;3.34;100.00
10881;BME280;5493;48.884;8.338;2023-03-03T05:48:20;100577.84;;;3.36;100.00
10881;BME280;5493;48.884;8.338;2023-03-03T05:50:47;100571.00;;;3.58;100.00
10881;BME280;5493;48.884;8.338;2023-03-03T05:53:14;100575.31;;;3.75;100.00
10881;BME280;5493;48.884;8.338;2023-03-03T05:55:41;100581.50;;;3.75;100.00
10881;BME280;5493;48.884;8.338;2023-03-03T05:58:07;100583.31;;;3.67;100.00
10881;BME280;5493;48.884;8.338;2023-03-03T06:00:34;100580.97;;;3.80;100.00
10881;BME280;5493;48.884;8.338;2023-03-03T06:03:01;100577.66;;;3.78;100.00
10881;BME280;5493;48.884;8.338;2023-03-03T06:05:27;100582.00;;;3.63;100.00
10881;BME280;5493;48.884;8.338;2023-03-03T06:07:54;100583.47;;;3.81;100.00
10881;BME280;5493;48.884;8.338;2023-03-03T06:10:22;100586.81;;;3.83;100.00
10881;BME280;5493;48.884;8.338;2023-03-03T06:12:49;100599.84;;;3.54;100.00
10881;BME280;5493;48.884;8.338;2023-03-03T06:15:16;100594.66;;;3.53;100.00
10881;BME280;5493;48.884;8.338;2023-03-03T06:17:42;100605.66;;;3.41;100.00
10881;BME280;5493;48.884;8.338;2023-03-03T06:20:10;100612.50;;;3.36;100.00
10881;BME280;5493;48.884;8.338;2023-03-03T06:22:36;100612.13;;;3.23;100.00
10881;BME280;5493;48.884;8.338;2023-03-03T06:25:03;100618.25;;;3.07;100.00
10881;BME280;5493;48.884;8.338;2023-03-03T06:27:31;100621.25;;;3.12;100.00
10881;BME280;5493;48.884;8.338;2023-03-03T06:29:58;100623.25;;;3.10;100.00
10881;BME280;5493;48.884;8.338;2023-03-03T06:32:25;100625.41;;;3.15;100.00
10881;BME280;5493;48.884;8.338;2023-03-03T06:34:51;100627.78;;;3.26;100.00
10881;BME280;5493;48.884;8.338;2023-03-03T06:37:18;100636.63;;;3.34;100.00
10881;BME280;5493;48.884;8.338;2023-03-03T06:39:44;100638.78;;;3.31;100.00
10881;BME280;5493;48.884;8.338;2023-03-03T06:42:11;100644.09;;;3.23;100.00
10881;BME280;5493;48.884;8.338;2023-03-03T06:44:38;100642.44;;;3.22;100.00
10881;BME280;5493;48.884;8.338;2023-03-03T06:47:05;100647.09;;;3.20;100.00
10881;BME280;5493;48.884;8.338;2023-03-03T06:49:32;100630.63;;;3.32;100.00
10881;BME280;5493;48.884;8.338;2023-03-03T06:52:00;100646.63;;;3.32;100.00
10881;BME280;5493;48.884;8.338;2023-03-03T06:54:28;100641.59;;;3.29;100.00
10881;BME280;5493;48.884;8.338;2023-03-03T06:56:57;100649.94;;;3.34;100.00
10881;BME280;5493;48.884;8.338;2023-03-03T06:59:26;100640.47;;;3.48;100.00
10881;BME280;5493;48.884;8.338;2023-03-03T07:01:55;100642.31;;;3.64;100.00
10881;BME280;5493;48.884;8.338;2023-03-03T07:04:24;100639.81;;;3.78;100.00
10881;BME280;5493;48.884;8.338;2023-03-03T07:06:55;100647.63;;;3.88;100.00
10881;BME280;5493;48.884;8.338;2023-03-03T07:09:24;100650.31;;;3.96;100.00
10881;BME280;5493;48.884;8.338;2023-03-03T07:11:51;100650.97;;;4.14;100.00
10881;BME280;5493;48.884;8.338;2023-03-03T07:14:19;100661.97;;;4.19;100.00
10881;BME280;5493;48.884;8.338;2023-03-03T07:16:46;100662.13;;;4.18;100.00
10881;BME280;5493;48.884;8.338;2023-03-03T07:19:23;100665.47;;;3.95;100.00
10881;BME280;5493;48.884;8.338;2023-03-03T07:21:53;100662.31;;;3.92;100.00
10881;BME280;5493;48.884;8.338;2023-03-03T07:24:25;100664.13;;;3.91;100.00
10881;BME280;5493;48.884;8.338;2023-03-03T07:26:55;100654.66;;;4.05;100.00
10881;BME280;5493;48.884;8.338;2023-03-03T07:29:23;100649.63;;;4.18;100.00
10881;BME280;5493;48.884;8.338;2023-03-03T07:31:51;100659.81;;;4.07;100.00
10881;BME280;5493;48.884;8.338;2023-03-03T07:34:21;100650.13;;;4.06;100.00
10881;BME280;5493;48.884;8.338;2023-03-03T07:36:49;100652.28;;;4.10;100.00
10881;BME280;5493;48.884;8.338;2023-03-03T07:39:34;100654.94;;;4.26;100.00
10881;BME280;5493;48.884;8.338;2023-03-03T07:42:13;100654.53;;;4.62;100.00
10881;BME280;5493;48.884;8.338;2023-03-03T07:44:41;100663.19;;;4.64;100.00
10881;BME280;5493;48.884;8.338;2023-03-03T07:47:14;100664.72;;;4.58;100.00
10881;BME280;5493;48.884;8.338;2023-03-03T07:49:45;100672.97;;;4.79;100.00
10881;BME280;5493;48.884;8.338;2023-03-03T07:52:37;100672.75;;;4.97;100.00
10881;BME280;5493;48.884;8.338;2023-03-03T07:55:22;100675.09;;;4.92;100.00
10881;BME280;5493;48.884;8.338;2023-03-03T07:57:51;100675.09;;;4.92;100.00
10881;BME280;5493;48.884;8.338;2023-03-03T08:03:19;100687.56;;;5.08;100.00
10881;BME280;5493;48.884;8.338;2023-03-03T08:05:48;100689.56;;;5.06;100.00
10881;BME280;5493;48.884;8.338;2023-03-03T08:08:26;100690.75;;;5.34;100.00
10881;BME280;5493;48.884;8.338;2023-03-03T08:10:56;100693.25;;;5.05;100.00
10881;BME280;5493;48.884;8.338;2023-03-03T08:13:23;100699.94;;;5.01;100.00
10881;BME280;5493;48.884;8.338;2023-03-03T08:15:57;100696.34;;;5.24;100.00
10881;BME280;5493;48.884;8.338;2023-03-03T08:18:28;100699.63;;;5.34;100.00
10881;BME280;5493;48.884;8.338;2023-03-03T08:20:58;100691.91;;;5.09;100.00
10881;BME280;5493;48.884;8.338;2023-03-03T08:23:25;100699.22;;;5.45;100.00
10881;BME280;5493;48.884;8.338;2023-03-03T08:25:52;100697.50;;;5.53;100.00
10881;BME280;5493;48.884;8.338;2023-03-03T08:28:20;100693.09;;;5.82;100.00
10881;BME280;5493;48.884;8.338;2023-03-03T08:30:47;100689.06;;;6.09;100.00
10881;BME280;5493;48.884;8.338;2023-03-03T08:33:15;100685.34;;;6.18;100.00
10881;BME280;5493;48.884;8.338;2023-03-03T08:35:42;100684.25;;;6.42;100.00
10881;BME280;5493;48.884;8.338;2023-03-03T08:38:11;100686.31;;;6.55;100.00
10881;BME280;5493;48.884;8.338;2023-03-03T08:40:39;100680.47;;;6.51;100.00
10881;BME280;5493;48.884;8.338;2023-03-03T08:43:05;100682.66;;;6.18;100.00
10881;BME280;5493;48.884;8.338;2023-03-03T08:45:33;100680.84;;;6.48;100.00
10881;BME280;5493;48.884;8.338;2023-03-03T08:48:00;100678.00;;;6.79;100.00
10881;BME280;5493;48.884;8.338;2023-03-03T08:50:26;100677.44;;;6.98;100.00
10881;BME280;5493;48.884;8.338;2023-03-03T08:52:53;100684.19;;;6.94;100.00
10881;BME280;5493;48.884;8.338;2023-03-03T08:55:21;100684.50;;;7.20;100.00
10881;BME280;5493;48.884;8.338;2023-03-03T08:57:48;100682.44;;;7.37;100.00
10881;BME280;5493;48.884;8.338;2023-03-03T09:00:16;100687.75;;;7.16;100.00
10881;BME280;5493;48.884;8.338;2023-03-03T09:02:43;100693.53;;;6.83;100.00
10881;BME280;5493;48.884;8.338;2023-03-03T09:05:09;100694.81;;;6.58;100.00
10881;BME280;5493;48.884;8.338;2023-03-03T09:07:36;100693.94;;;7.16;100.00
10881;BME280;5493;48.884;8.338;2023-03-03T09:10:04;100691.47;;;7.51;100.00
10881;BME280;5493;48.884;8.338;2023-03-03T09:12:35;100696.78;;;7.29;100.00
10881;BME280;5493;48.884;8.338;2023-03-03T09:15:13;100700.09;;;7.67;100.00
10881;BME280;5493;48.884;8.338;2023-03-03T09:17:40;100697.25;;;7.90;100.00
10881;BME280;5493;48.884;8.338;2023-03-03T09:20:23;100712.53;;;7.18;100.00
10881;BME280;5493;48.884;8.338;2023-03-03T09:22:52;100720.72;;;7.31;100.00
10881;BME280;5493;48.884;8.338;2023-03-03T09:25:30;100716.50;;;7.22;100.00
10881;BME280;5493;48.884;8.338;2023-03-03T09:27:58;100727.41;;;7.06;100.00
10881;BME280;5493;48.884;8.338;2023-03-03T09:30:35;100719.56;;;7.19;100.00
10881;BME280;5493;48.884;8.338;2023-03-03T09:33:20;100718.81;;;7.61;100.00
10881;BME280;5493;48.884;8.338;2023-03-03T09:35:50;100719.38;;;7.56;100.00
10881;BME280;5493;48.884;8.338;2023-03-03T09:38:25;100712.25;;;8.27;100.00
10881;BME280;5493;48.884;8.338;2023-03-03T09:44:00;100715.19;;;8.53;100.00
10881;BME280;5493;48.884;8.338;2023-03-03T09:46:35;100715.97;;;8.54;100.00
10881;BME280;5493;48.884;8.338;2023-03-03T09:49:16;100711.03;;;8.08;100.00
10881;BME280;5493;48.884;8.338;2023-03-03T09:51:58;100722.28;;;8.18;100.00
10881;BME280;5493;48.884;8.338;2023-03-03T09:54:38;100717.34;;;8.43;100.00
10881;BME280;5493;48.884;8.338;2023-03-03T09:57:13;100703.13;;;8.77;100.00
10881;BME280;5493;48.884;8.338;2023-03-03T09:59:53;100715.00;;;8.61;100.00
10881;BME280;5493;48.884;8.338;2023-03-03T10:02:33;100708.59;;;8.62;100.00
10881;BME280;5493;48.884;8.338;2023-03-03T10:05:11;100712.19;;;8.20;100.00
10881;BME280;5493;48.884;8.338;2023-03-03T10:07:50;100709.59;;;8.82;100.00
10881;BME280;5493;48.884;8.338;2023-03-03T10:10:47;100709.81;;;8.32;100.00
10881;BME280;5493;48.884;8.338;2023-03-03T10:13:24;100712.13;;;8.97;100.00
10881;BME280;5493;48.884;8.338;2023-03-03T10:16:08;100722.13;;;8.75;100.00
10881;BME280;5493;48.884;8.338;2023-03-03T10:18:41;100730.13;;;8.62;100.00
10881;BME280;5493;48.884;8.338;2023-03-03T10:21:16;100730.06;;;8.90;100.00
10881;BME280;5493;48.884;8.338;2023-03-03T10:23:53;100718.63;;;8.75;100.00
10881;BME280;5493;48.884;8.338;2023-03-03T10:26:30;100717.03;;;9.21;100.00
10881;BME280;5493;48.884;8.338;2023-03-03T10:29:07;100719.78;;;9.41;100.00
10881;BME280;5493;48.884;8.338;2023-03-03T10:31:47;100719.84;;;9.48;100.00
10881;BME280;5493;48.884;8.338;2023-03-03T10:34:25;100727.13;;;9.13;100.00
10881;BME280;5493;48.884;8.338;2023-03-03T10:36:58;100721.09;;;9.58;100.00
10881;BME280;5493;48.884;8.338;2023-03-03T10:39:45;100715.56;;;9.79;100.00
10881;BME280;5493;48.884;8.338;2023-03-03T10:42:24;100706.69;;;10.12;100.00
10881;BME280;5493;48.884;8.338;2023-03-03T10:48:00;100716.75;;;9.64;100.00
10881;BME280;5493;48.884;8.338;2023-03-03T10:50:34;100711.72;;;10.21;100.00
10881;BME280;5493;48.884;8.338;2023-03-03T10:53:18;100707.16;;;10.15;100.00
10881;BME280;5493;48.884;8.338;2023-03-03T10:55:53;100713.06;;;9.78;100.00
10881;BME280;5493;48.884;8.338;2023-03-03T10:58:53;100717.44;;;9.79;100.00
10881;BME280;5493;48.884;8.338;2023-03-03T11:01:28;100715.34;;;9.87;100.00
10881;BME280;5493;48.884;8.338;2023-03-03T11:04:19;100706.75;;;10.18;100.00
10881;BME280;5493;48.884;8.338;2023-03-03T11:06:53;100711.88;;;10.72;100.00
10881;BME280;5493;48.884;8.338;2023-03-03T11:09:33;100710.97;;;11.05;100.00
10881;BME280;5493;48.884;8.338;2023-03-03T11:12:15;100700.94;;;11.69;97.39
10881;BME280;5493;48.884;8.338;2023-03-03T11:14:47;100705.03;;;12.16;94.79
10881;BME280;5493;48.884;8.338;2023-03-03T11:17:19;100700.22;;;12.86;87.31
10881;BME280;5493;48.884;8.338;2023-03-03T11:20:00;100705.44;;;12.88;86.98
10881;BME280;5493;48.884;8.338;2023-03-03T11:22:43;100703.31;;;12.90;84.19
10881;BME280;5493;48.884;8.338;2023-03-03T11:25:19;100701.66;;;12.21;87.01
10881;BME280;5493;48.884;8.338;2023-03-03T11:28:02;100705.84;;;13.57;82.48
10881;BME280;5493;48.884;8.338;2023-03-03T11:30:45;100696.69;;;13.58;79.36
10881;BME280;5493;48.884;8.338;2023-03-03T11:33:18;100699.25;;;13.53;77.20
10881;BME280;5493;48.884;8.338;2023-03-03T11:35:50;100703.97;;;13.58;76.18
10881;BME280;5493;48.884;8.338;2023-03-03T11:38:33;100703.97;;;13.58;77.93
10881;BME280;5493;48.884;8.338;2023-03-03T11:41:07;100697.31;;;13.06;79.09
10881;BME280;5493;48.884;8.338;2023-03-03T11:43:41;100694.81;;;12.86;79.45
10881;BME280;5493;48.884;8.338;2023-03-03T11:46:12;100698.72;;;14.04;74.42
10881;BME280;5493;48.884;8.338;2023-03-03T11:48:45;100683.03;;;13.65;73.92
10881;BME280;5493;48.884;8.338;2023-03-03T11:51:19;100675.94;;;14.35;76.00
10881;BME280;5493;48.884;8.338;2023-03-03T11:53:56;100677.19;;;13.79;70.45
10881;BME280;5493;48.884;8.338;2023-03-03T11:56:27;100675.84;;;14.53;71.65
10881;BME280;5493;48.884;8.338;2023-03-03T11:59:13;100666.50;;;14.72;67.60
10881;BME280;5493;48.884;8.338;2023-03-03T12:01:51;100670.84;;;13.86;68.85
10881;BME280;5493;48.884;8.338;2023-03-03T12:04:19;100665.34;;;14.68;65.62
10881;BME280;5493;48.884;8.338;2023-03-03T12:07:04;100658.97;;;15.26;66.71
10881;BME280;5493;48.884;8.338;2023-03-03T12:09:38;100658.72;;;14.64;64.66
10881;BME280;5493;48.884;8.338;2023-03-03T12:12:13;100648.69;;;14.53;66.54
10881;BME280;5493;48.884;8.338;2023-03-03T12:15:01;100655.41;;;15.25;62.93
10881;BME280;5493;48.884;8.338;2023-03-03T12:17:42;100655.25;;;15.72;61.57
10881;BME280;5493;48.884;8.338;2023-03-03T12:20:18;100660.25;;;14.72;63.18
10881;BME280;5493;48.884;8.338;2023-03-03T12:22:59;100660.84;;;14.39;65.60
10881;BME280;5493;48.884;8.338;2023-03-03T12:25:34;100654.84;;;14.60;64.39
10881;BME280;5493;48.884;8.338;2023-03-03T12:28:05;100648.97;;;15.55;62.73
10881;BME280;5493;48.884;8.338;2023-03-03T12:30:48;100652.78;;;14.91;63.63
10881;BME280;5493;48.884;8.338;2023-03-03T12:33:30;100646.34;;;14.45;64.91
10881;BME280;5493;48.884;8.338;2023-03-03T12:36:12;100643.91;;;14.25;63.93
10881;BME280;5493;48.884;8.338;2023-03-03T12:38:49;100642.88;;;14.96;66.02
10881;BME280;5493;48.884;8.338;2023-03-03T12:41:20;100634.88;;;14.66;68.90
10881;BME280;5493;48.884;8.338;2023-03-03T12:43:55;100636.41;;;14.86;61.32
10881;BME280;5493;48.884;8.338;2023-03-03T12:46:36;100638.81;;;15.10;64.96
10881;BME280;5493;48.884;8.338;2023-03-03T12:49:08;100635.44;;;14.22;66.12
10881;BME280;5493;48.884;8.338;2023-03-03T12:51:44;100635.72;;;15.47;64.98
10881;BME280;5493;48.884;8.338;2023-03-03T12:54:23;100642.44;;;14.53;65.71
10881;BME280;5493;48.884;8.338;2023-03-03T12:56:57;100630.97;;;15.25;66.77
10881;BME280;5493;48.884;8.338;2023-03-03T12:59:36;100628.75;;;14.36;65.13
10881;BME280;5493;48.884;8.338;2023-03-03T13:02:24;100621.50;;;14.88;65.65
10881;BME280;5493;48.884;8.338;2023-03-03T13:04:58;100621.44;;;14.48;69.32
10881;BME280;5493;48.884;8.338;2023-03-03T13:07:32;100625.88;;;14.08;67.57
10881;BME280;5493;48.884;8.338;2023-03-03T13:10:10;100616.53;;;14.97;70.02
10881;BME280;5493;48.884;8.338;2023-03-03T13:12:43;100617.06;;;14.47;66.61
10881;BME280;5493;48.884;8.338;2023-03-03T13:15:17;100622.94;;;14.21;70.39
10881;BME280;5493;48.884;8.338;2023-03-03T13:17:56;100625.31;;;14.17;70.24
10881;BME280;5493;48.884;8.338;2023-03-03T13:20:32;100632.06;;;14.38;67.80
10881;BME280;5493;48.884;8.338;2023-03-03T13:23:06;100628.13;;;13.99;71.74
10881;BME280;5493;48.884;8.338;2023-03-03T13:25:41;100629.91;;;13.64;74.93
10881;BME280;5493;48.884;8.338;2023-03-03T13:28:15;100632.34;;;13.54;74.50
10881;BME280;5493;48.884;8.338;2023-03-03T13:30:47;100631.44;;;14.24;75.83